Time;durP1;ratioP1;P1;durP2;ratioP2;P2;SDS_P1;SDS_P2;PMS_P1;PMS_P2;Temp;Humidity;BMP_temperature;BMP_pressure;BME280_temperature;BME280_humidity;BME280_pressure;Samples;Min_cycle;Max_cycle;Signal;HPM_P1;HPM_P2
2023/09/24 00:02:09;;;;;;;6.53;5.97;;;13.70;1.00;;;;;;5117431;28;20458;-85
2023/09/24 00:04:36;;;;;;;6.57;5.73;;;13.70;1.00;;;;;;5116617;27;20705;-84
2023/09/24 00:07:03;;;;;;;5.93;5.37;;;13.70;1.00;;;;;;5113796;28;20460;-85
2023/09/24 00:09:32;;;;;;;6.87;6.00;;;13.70;1.00;;;;;;5115418;27;20467;-80
2023/09/24 00:11:59;;;;;;;6.27;5.77;;;13.70;1.00;;;;;;5115594;27;20460;-88
2023/09/24 00:14:29;;;;;;;6.83;6.30;;;13.60;1.00;;;;;;5113724;27;20435;-82
2023/09/24 00:16:57;;;;;;;7.50;6.70;;;13.60;1.00;;;;;;5117301;28;20447;-86
2023/09/24 00:19:24;;;;;;;6.63;6.03;;;13.70;1.00;;;;;;5115843;28;20477;-82
2023/09/24 00:21:51;;;;;;;6.73;6.23;;;13.70;1.00;;;;;;5110305;27;20622;-84
2023/09/24 00:24:18;;;;;;;6.83;5.73;;;13.70;1.00;;;;;;5116668;27;20494;-85
2023/09/24 00:26:47;;;;;;;7.50;6.07;;;13.70;1.00;;;;;;5115829;27;20819;-80
2023/09/24 00:29:14;;;;;;;6.63;6.07;;;13.70;1.00;;;;;;5109433;27;21132;-83
2023/09/24 00:31:41;;;;;;;5.97;5.37;;;13.70;1.00;;;;;;5110590;28;20894;-85
2023/09/24 00:34:09;;;;;;;6.50;5.90;;;13.80;1.00;;;;;;5113337;28;22525;-84
2023/09/24 00:36:36;;;;;;;6.30;5.80;;;13.70;1.00;;;;;;5113874;27;20524;-85
2023/09/24 00:39:04;;;;;;;6.33;5.83;;;13.70;1.00;;;;;;5116396;28;20447;-84
2023/09/24 00:41:32;;;;;;;7.43;6.67;;;13.70;1.00;;;;;;5113618;28;20470;-82
2023/09/24 00:44:01;;;;;;;6.43;5.90;;;13.70;1.00;;;;;;5111035;27;20468;-85
2023/09/24 00:46:30;;;;;;;6.33;5.63;;;13.70;1.00;;;;;;5113373;27;20595;-84
2023/09/24 00:48:59;;;;;;;6.03;5.43;;;13.70;1.00;;;;;;5111179;27;20561;-84
2023/09/24 00:51:29;;;;;;;6.10;5.50;;;13.60;1.00;;;;;;5111591;27;20439;-83
2023/09/24 00:53:56;;;;;;;6.40;5.80;;;13.60;1.00;;;;;;5110553;27;20488;-83
2023/09/24 00:56:24;;;;;;;6.10;5.60;;;13.60;1.00;;;;;;5111806;28;20452;-85
2023/09/24 00:58:51;;;;;;;5.97;5.47;;;13.60;1.00;;;;;;5112266;27;21149;-83
2023/09/24 01:01:24;;;;;;;5.37;4.97;;;13.60;1.00;;;;;;5111157;28;20464;-86
2023/09/24 01:03:52;;;;;;;7.17;6.30;;;13.50;1.00;;;;;;5112743;27;20452;-85
2023/09/24 01:06:20;;;;;;;6.03;5.43;;;13.60;1.00;;;;;;5112886;27;20489;-86
2023/09/24 01:08:48;;;;;;;6.53;5.60;;;13.50;1.00;;;;;;5111229;27;20475;-80
2023/09/24 01:11:15;;;;;;;5.83;5.20;;;13.50;1.00;;;;;;5114255;27;20539;-85
2023/09/24 01:13:44;;;;;;;6.50;5.80;;;13.50;1.00;;;;;;5114985;27;20499;-85
2023/09/24 01:16:12;;;;;;;5.70;5.20;;;13.50;1.00;;;;;;5114292;28;20547;-84
2023/09/24 01:18:42;;;;;;;6.17;5.60;;;13.50;1.00;;;;;;5113444;27;20495;-84
2023/09/24 01:21:12;;;;;;;6.30;5.70;;;13.50;1.00;;;;;;5113530;27;21211;-84
2023/09/24 01:23:42;;;;;;;5.83;5.43;;;13.50;1.00;;;;;;5115326;27;20456;-80
2023/09/24 01:26:11;;;;;;;5.97;5.47;;;13.50;1.00;;;;;;5113130;27;20446;-83
2023/09/24 01:28:39;;;;;;;6.20;5.60;;;13.50;1.00;;;;;;5113809;27;20838;-81
2023/09/24 01:31:06;;;;;;;6.70;6.10;;;13.50;1.00;;;;;;5117418;27;20444;-87
2023/09/24 01:33:36;;;;;;;6.63;6.00;;;13.50;1.00;;;;;;5116399;27;20525;-87
2023/09/24 01:36:03;;;;;;;6.20;5.70;;;13.50;1.00;;;;;;5112410;27;20443;-86
2023/09/24 01:38:31;;;;;;;6.20;5.70;;;13.50;1.00;;;;;;5118318;27;20551;-81
2023/09/24 01:41:00;;;;;;;6.87;6.30;;;13.50;1.00;;;;;;5117221;27;20443;-86
2023/09/24 01:43:30;;;;;;;6.70;6.03;;;13.50;1.00;;;;;;5116183;27;20415;-79
2023/09/24 01:45:57;;;;;;;6.40;5.90;;;13.50;1.00;;;;;;5117442;28;20463;-82
2023/09/24 01:48:24;;;;;;;6.20;5.60;;;13.50;1.00;;;;;;5115779;28;20444;-81
2023/09/24 01:50:52;;;;;;;6.60;5.90;;;13.50;1.00;;;;;;5112552;28;20439;-84
2023/09/24 01:53:19;;;;;;;6.03;5.53;;;13.50;1.00;;;;;;5116580;28;20423;-87
2023/09/24 01:55:47;;;;;;;7.63;6.20;;;13.40;1.00;;;;;;5116103;27;20458;-88
2023/09/24 01:58:16;;;;;;;7.50;6.80;;;13.30;1.00;;;;;;5107744;28;20850;-77
2023/09/24 02:00:43;;;;;;;5.50;5.10;;;13.30;1.00;;;;;;5104297;27;20491;-77
2023/09/24 02:03:12;;;;;;;6.03;5.23;;;13.30;1.00;;;;;;5105219;28;20854;-77
2023/09/24 02:05:39;;;;;;;6.70;5.30;;;13.30;1.00;;;;;;5104899;28;20479;-80
2023/09/24 02:08:09;;;;;;;8.70;7.90;;;13.40;1.00;;;;;;5107408;27;20501;-76
2023/09/24 02:10:40;;;;;;;7.50;5.80;;;13.40;1.00;;;;;;5107061;27;20491;-77
2023/09/24 02:13:08;;;;;;;6.43;5.93;;;13.30;1.00;;;;;;5104648;27;20959;-81
2023/09/24 02:15:39;;;;;;;7.17;6.50;;;13.20;1.00;;;;;;5105970;28;20833;-79
2023/09/24 02:18:07;;;;;;;5.80;5.40;;;13.20;1.00;;;;;;5105114;28;20474;-78
2023/09/24 02:20:37;;;;;;;7.37;6.23;;;13.10;1.00;;;;;;5107326;27;20469;-77
2023/09/24 02:23:04;;;;;;;6.70;6.07;;;13.00;1.00;;;;;;5101406;27;20459;-78
2023/09/24 02:25:33;;;;;;;7.23;6.53;;;12.90;1.00;;;;;;5102131;28;20459;-78
2023/09/24 02:28:03;;;;;;;5.97;5.47;;;12.90;1.00;;;;;;5086999;28;20631;-80
2023/09/24 02:30:36;;;;;;;6.60;5.70;;;12.80;1.00;;;;;;5103366;28;20458;-81
2023/09/24 02:33:07;;;;;;;7.47;5.80;;;12.80;1.00;;;;;;5108455;28;20477;-77
2023/09/24 02:35:34;;;;;;;7.97;6.47;;;12.70;1.00;;;;;;5111939;27;21027;-77
2023/09/24 02:38:02;;;;;;;6.47;5.97;;;12.70;1.00;;;;;;5110259;27;20571;-77
2023/09/24 02:40:30;;;;;;;7.33;6.20;;;12.60;1.00;;;;;;5092238;28;21334;-78
2023/09/24 02:42:58;;;;;;;6.90;6.30;;;12.60;1.00;;;;;;5110382;27;20445;-77
2023/09/24 02:45:27;;;;;;;6.50;5.90;;;12.50;1.00;;;;;;5113830;28;21073;-78
2023/09/24 02:47:54;;;;;;;7.60;6.20;;;12.40;1.00;;;;;;5110043;28;21162;-77
2023/09/24 02:50:25;;;;;;;6.20;5.70;;;12.40;1.00;;;;;;5109723;28;20456;-77
2023/09/24 02:52:55;;;;;;;7.73;6.87;;;12.30;1.00;;;;;;5094971;28;20917;-78
2023/09/24 02:55:23;;;;;;;7.40;6.60;;;12.20;1.00;;;;;;5108804;28;20474;-77
2023/09/24 02:57:51;;;;;;;7.20;6.50;;;12.20;1.00;;;;;;5112186;27;20522;-77
2023/09/24 03:00:21;;;;;;;7.33;6.60;;;12.10;1.00;;;;;;5111504;27;21093;-79
2023/09/24 03:02:53;;;;;;;7.43;6.83;;;12.20;1.00;;;;;;5111696;27;20438;-78
2023/09/24 03:05:24;;;;;;;8.97;6.93;;;12.30;1.00;;;;;;5111343;28;20528;-77
2023/09/24 03:07:55;;;;;;;8.33;7.50;;;12.30;1.00;;;;;;5112420;28;21014;-77
2023/09/24 03:10:23;;;;;;;7.17;6.50;;;12.40;1.00;;;;;;5107604;27;20529;-78
2023/09/24 03:12:50;;;;;;;7.47;6.90;;;12.50;1.00;;;;;;5108295;27;20461;-80
2023/09/24 03:15:19;;;;;;;8.13;6.60;;;12.50;1.00;;;;;;5112214;27;20511;-80
2023/09/24 03:17:47;;;;;;;7.17;6.47;;;12.60;1.00;;;;;;5112093;28;20505;-78
2023/09/24 03:20:15;;;;;;;7.13;6.50;;;12.60;1.00;;;;;;5112073;28;21032;-78
2023/09/24 03:22:46;;;;;;;7.97;5.97;;;12.70;1.00;;;;;;5112178;27;20465;-77
2023/09/24 03:25:17;;;;;;;8.00;6.43;;;12.80;1.00;;;;;;5110474;27;20830;-79
2023/09/24 03:27:44;;;;;;;6.77;6.17;;;12.90;1.00;;;;;;5093688;28;20476;-77
2023/09/24 03:30:14;;;;;;;7.63;6.90;;;13.00;1.00;;;;;;5109545;28;20949;-78
2023/09/24 03:32:41;;;;;;;7.10;6.60;;;13.10;1.00;;;;;;5110596;27;20446;-77
2023/09/24 03:35:10;;;;;;;6.37;5.83;;;13.20;1.00;;;;;;5110220;27;20489;-80
2023/09/24 03:37:40;;;;;;;6.50;5.90;;;13.30;1.00;;;;;;5108310;27;21158;-78
2023/09/24 03:40:11;;;;;;;6.10;5.63;;;13.30;1.00;;;;;;5109315;27;20454;-80
2023/09/24 03:42:38;;;;;;;6.73;6.23;;;13.40;1.00;;;;;;5107716;27;20468;-78
2023/09/24 03:45:07;;;;;;;7.87;7.03;;;13.40;1.00;;;;;;5110007;28;21044;-79
2023/09/24 03:47:34;;;;;;;7.00;6.30;;;13.50;1.00;;;;;;5108653;27;21029;-79
2023/09/24 03:50:02;;;;;;;6.50;6.00;;;13.50;1.00;;;;;;5109498;27;20486;-79
2023/09/24 03:52:30;;;;;;;6.90;6.30;;;13.60;1.00;;;;;;5106553;27;20459;-78
2023/09/24 03:54:57;;;;;;;7.80;6.27;;;13.70;1.00;;;;;;5107170;27;20467;-79
2023/09/24 03:57:27;;;;;;;7.70;7.00;;;13.80;1.00;;;;;;5110240;28;21025;-78
2023/09/24 03:59:54;;;;;;;6.87;6.27;;;13.90;1.00;;;;;;5091638;28;20448;-78
2023/09/24 04:02:22;;;;;;;7.20;6.60;;;14.00;1.00;;;;;;5110701;27;20491;-80
2023/09/24 04:04:49;;;;;;;6.50;6.00;;;14.10;1.00;;;;;;5103371;27;20468;-78
2023/09/24 04:07:17;;;;;;;6.20;5.70;;;14.20;1.00;;;;;;5109901;27;20472;-78
2023/09/24 04:09:44;;;;;;;6.60;6.00;;;14.10;1.00;;;;;;5111567;28;20490;-79
2023/09/24 04:12:13;;;;;;;5.93;5.33;;;14.10;1.00;;;;;;5108942;28;21286;-77
2023/09/24 04:14:41;;;;;;;7.37;6.73;;;14.10;1.00;;;;;;5109055;28;20895;-80
2023/09/24 04:17:09;;;;;;;6.83;6.20;;;14.20;1.00;;;;;;5109650;27;20470;-77
2023/09/24 04:19:36;;;;;;;9.27;6.47;;;14.20;1.00;;;;;;5110065;27;20464;-77
2023/09/24 04:22:03;;;;;;;6.20;5.70;;;14.30;1.00;;;;;;5108488;28;20460;-78
2023/09/24 04:24:30;;;;;;;7.43;6.73;;;14.20;1.00;;;;;;5110066;27;20472;-81
2023/09/24 04:26:57;;;;;;;7.50;6.00;;;14.30;1.00;;;;;;5111138;27;20495;-79
2023/09/24 04:29:24;;;;;;;6.57;6.03;;;14.40;1.00;;;;;;5108456;28;20511;-77
2023/09/24 04:31:55;;;;;;;7.93;7.17;;;14.40;1.00;;;;;;5107072;27;20979;-80
2023/09/24 04:34:23;;;;;;;8.47;7.77;;;14.50;1.00;;;;;;5110003;28;20519;-78
2023/09/24 04:36:51;;;;;;;8.33;7.63;;;14.40;1.00;;;;;;5111687;27;20440;-87
2023/09/24 04:39:19;;;;;;;9.00;8.20;;;14.50;1.00;;;;;;5113432;27;20455;-87
2023/09/24 04:41:47;;;;;;;9.77;8.83;;;14.60;1.00;;;;;;5114488;28;20428;-83
2023/09/24 04:44:14;;;;;;;8.93;7.87;;;14.60;1.00;;;;;;5114337;28;20491;-85
2023/09/24 04:46:42;;;;;;;10.23;9.43;;;14.70;1.00;;;;;;5113290;27;20445;-82
2023/09/24 04:49:10;;;;;;;12.00;10.47;;;14.80;1.00;;;;;;5116712;27;20425;-84
2023/09/24 04:51:37;;;;;;;10.50;9.50;;;14.60;1.00;;;;;;5115563;27;20423;-88
2023/09/24 04:54:05;;;;;;;10.90;9.90;;;14.70;1.00;;;;;;5116244;27;20553;-84
2023/09/24 04:56:32;;;;;;;11.97;10.97;;;14.60;1.00;;;;;;5114277;27;20468;-80
2023/09/24 04:58:59;;;;;;;10.97;10.07;;;14.60;1.00;;;;;;5111957;27;21420;-87
2023/09/24 05:01:26;;;;;;;11.27;10.27;;;14.50;1.00;;;;;;5115590;27;20451;-81
2023/09/24 05:03:57;;;;;;;12.47;11.30;;;14.50;1.00;;;;;;5114440;27;20445;-87
2023/09/24 05:06:27;;;;;;;11.57;10.53;;;14.40;1.00;;;;;;5115328;27;20457;-82
2023/09/24 05:08:54;;;;;;;11.83;10.83;;;14.50;1.00;;;;;;5113284;27;21678;-81
2023/09/24 05:11:21;;;;;;;10.37;9.40;;;14.50;1.00;;;;;;5114022;27;20474;-82
2023/09/24 05:13:48;;;;;;;11.57;10.67;;;14.50;1.00;;;;;;5112319;27;20523;-87
2023/09/24 05:16:15;;;;;;;12.50;11.40;;;14.50;1.00;;;;;;5115427;28;20468;-86
2023/09/24 05:18:43;;;;;;;12.10;11.00;;;14.60;1.00;;;;;;5115360;27;20481;-87
2023/09/24 05:21:17;;;;;;;12.47;11.20;;;14.60;1.00;;;;;;5113659;28;20985;-84
2023/09/24 05:23:48;;;;;;;12.80;11.50;;;14.50;1.00;;;;;;5114701;27;20465;-89
2023/09/24 05:26:15;;;;;;;12.87;11.67;;;14.50;1.00;;;;;;5116407;27;21319;-89
2023/09/24 05:28:43;;;;;;;12.30;11.00;;;14.50;1.00;;;;;;5115534;28;20424;-86
2023/09/24 05:31:10;;;;;;;13.70;11.70;;;14.40;1.00;;;;;;5112590;28;20566;-88
2023/09/24 05:33:38;;;;;;;21.77;19.80;;;14.40;1.00;;;;;;5112901;27;20479;-82
2023/09/24 05:36:05;;;;;;;13.97;12.77;;;14.30;1.00;;;;;;5112590;27;20558;-80
2023/09/24 05:38:32;;;;;;;13.60;12.20;;;14.30;1.00;;;;;;5113455;27;20427;-86
2023/09/24 05:41:01;;;;;;;14.17;12.87;;;14.30;1.00;;;;;;5115533;27;20457;-86
2023/09/24 05:43:29;;;;;;;11.70;10.53;;;14.30;1.00;;;;;;5111125;27;21063;-84
2023/09/24 05:45:56;;;;;;;12.63;11.47;;;14.30;1.00;;;;;;5112560;27;20526;-84
2023/09/24 05:48:22;;;;;;;12.07;10.90;;;14.30;1.00;;;;;;5112289;27;20473;-85
2023/09/24 05:50:49;;;;;;;13.80;12.53;;;14.30;1.00;;;;;;5110612;27;20510;-80
2023/09/24 05:53:17;;;;;;;12.00;10.90;;;14.30;1.00;;;;;;5111450;27;20544;-80
2023/09/24 05:55:52;;;;;;;12.23;11.20;;;14.30;1.00;;;;;;5110505;27;20530;-83
2023/09/24 05:58:22;;;;;;;10.90;9.93;;;14.40;1.00;;;;;;5113045;27;20505;-85
2023/09/24 06:00:51;;;;;;;10.20;9.30;;;14.50;1.00;;;;;;5112598;27;20463;-83
2023/09/24 06:03:19;;;;;;;11.70;10.60;;;14.50;1.00;;;;;;5110551;27;20560;-86
2023/09/24 06:05:46;;;;;;;11.33;10.30;;;14.60;1.00;;;;;;5115194;27;21090;-81
2023/09/24 06:08:13;;;;;;;12.10;11.10;;;14.60;1.00;;;;;;5114359;27;21094;-84
2023/09/24 06:10:44;;;;;;;11.13;10.17;;;14.70;1.00;;;;;;5115964;27;20444;-85
2023/09/24 06:13:13;;;;;;;11.13;10.13;;;14.80;1.00;;;;;;5118853;28;20433;-83
2023/09/24 06:15:42;;;;;;;10.37;9.40;;;14.80;1.00;;;;;;5116982;27;20492;-80
2023/09/24 06:18:10;;;;;;;11.20;10.10;;;14.80;1.00;;;;;;5115063;27;20481;-82
2023/09/24 06:20:40;;;;;;;10.60;9.37;;;14.80;1.00;;;;;;5114910;27;20453;-83
2023/09/24 06:23:08;;;;;;;10.50;9.10;;;14.80;1.00;;;;;;5115413;27;20466;-86
2023/09/24 06:25:36;;;;;;;9.57;8.47;;;14.80;1.00;;;;;;5115840;27;20455;-85
2023/09/24 06:28:09;;;;;;;9.10;8.20;;;14.90;1.00;;;;;;5117562;27;20583;-84
2023/09/24 06:30:36;;;;;;;8.00;7.30;;;15.00;1.00;;;;;;5112146;28;20441;-83
2023/09/24 06:33:05;;;;;;;9.63;8.70;;;15.00;1.00;;;;;;5104019;28;20565;-78
2023/09/24 06:35:33;;;;;;;8.30;7.50;;;15.00;1.00;;;;;;5094395;28;20472;-78
2023/09/24 06:38:00;;;;;;;8.43;7.63;;;15.10;1.00;;;;;;5108771;27;20591;-77
2023/09/24 06:40:27;;;;;;;8.33;7.53;;;15.10;1.00;;;;;;5106419;28;20462;-78
2023/09/24 06:42:55;;;;;;;9.00;8.20;;;15.20;1.00;;;;;;5090340;28;20444;-78
2023/09/24 06:45:22;;;;;;;8.47;7.67;;;15.20;1.00;;;;;;5091536;28;20481;-78
2023/09/24 06:47:50;;;;;;;10.37;7.77;;;15.20;1.00;;;;;;5109077;27;20526;-77
2023/09/24 06:50:19;;;;;;;7.53;6.83;;;15.20;1.00;;;;;;5107777;27;20465;-76
2023/09/24 06:52:46;;;;;;;8.70;7.90;;;15.30;1.00;;;;;;5106249;27;20916;-77
2023/09/24 06:55:13;;;;;;;8.20;7.40;;;15.40;1.00;;;;;;5109978;27;20487;-77
2023/09/24 06:57:40;;;;;;;8.47;7.50;;;15.40;1.00;;;;;;5101623;27;20510;-76
2023/09/24 07:00:10;;;;;;;7.20;6.40;;;15.50;1.00;;;;;;5102040;27;20864;-77
2023/09/24 07:02:37;;;;;;;7.20;6.60;;;15.60;1.00;;;;;;5104675;27;20948;-76
2023/09/24 07:05:06;;;;;;;7.13;6.43;;;15.70;1.00;;;;;;5105434;27;20565;-77
2023/09/24 07:07:34;;;;;;;6.77;6.07;;;15.60;1.00;;;;;;5106703;27;20459;-75
2023/09/24 07:10:01;;;;;;;7.70;7.00;;;15.60;1.00;;;;;;5107309;27;20557;-76
2023/09/24 07:12:28;;;;;;;7.07;6.47;;;15.70;1.00;;;;;;5106595;27;20489;-75
2023/09/24 07:14:56;;;;;;;7.37;6.70;;;15.80;1.00;;;;;;5104662;27;20543;-76
2023/09/24 07:17:25;;;;;;;7.67;6.77;;;15.80;1.00;;;;;;5105246;27;20861;-76
2023/09/24 07:19:53;;;;;;;6.27;5.77;;;16.00;1.00;;;;;;5105300;27;20438;-76
2023/09/24 07:22:26;;;;;;;6.63;6.13;;;16.10;1.00;;;;;;5107619;27;20468;-77
2023/09/24 07:24:54;;;;;;;9.00;6.43;;;16.20;1.00;;;;;;5107427;27;20505;-76
2023/09/24 07:27:21;;;;;;;7.13;6.57;;;16.20;1.00;;;;;;5109308;27;20501;-75
2023/09/24 07:29:49;;;;;;;6.73;6.10;;;16.20;1.00;;;;;;5088058;28;20711;-78
2023/09/24 07:32:17;;;;;;;7.13;6.53;;;16.20;1.00;;;;;;5106697;27;20478;-76
2023/09/24 07:34:46;;;;;;;7.33;6.83;;;16.10;1.00;;;;;;5106839;28;20556;-76
2023/09/24 07:37:15;;;;;;;7.10;6.60;;;16.20;1.00;;;;;;5108707;27;20526;-76
2023/09/24 07:39:43;;;;;;;7.17;6.57;;;16.30;1.00;;;;;;5106052;27;20921;-76
2023/09/24 07:42:11;;;;;;;7.17;6.60;;;16.50;1.00;;;;;;5107461;27;20961;-75
2023/09/24 07:44:38;;;;;;;7.20;6.50;;;16.60;1.00;;;;;;5107521;27;20592;-76
2023/09/24 07:47:05;;;;;;;8.97;7.63;;;16.60;1.00;;;;;;5107795;28;21271;-75
2023/09/24 07:49:32;;;;;;;7.70;7.00;;;16.50;1.00;;;;;;5106916;27;20558;-76
2023/09/24 07:51:59;;;;;;;7.67;7.07;;;16.50;1.00;;;;;;5109061;27;20569;-75
2023/09/24 07:54:27;;;;;;;8.67;7.90;;;16.60;1.00;;;;;;5095587;27;20482;-75
2023/09/24 07:56:54;;;;;;;7.47;6.77;;;16.80;1.00;;;;;;5104510;27;20442;-76
2023/09/24 07:59:23;;;;;;;7.40;6.80;;;17.00;1.00;;;;;;5106715;27;20521;-75
2023/09/24 08:01:50;;;;;;;7.20;6.60;;;17.10;1.00;;;;;;5104803;27;20504;-76
2023/09/24 08:04:17;;;;;;;7.13;6.63;;;17.20;1.00;;;;;;5106433;28;20579;-76
2023/09/24 08:06:45;;;;;;;8.27;7.57;;;17.20;1.00;;;;;;5110360;27;20489;-77
2023/09/24 08:09:12;;;;;;;8.67;7.87;;;17.20;1.00;;;;;;5109448;27;20466;-77
2023/09/24 08:11:40;;;;;;;11.80;8.50;;;17.30;1.00;;;;;;5093598;28;21111;-76
2023/09/24 08:14:07;;;;;;;9.10;8.30;;;17.50;1.00;;;;;;5104162;28;20796;-77
2023/09/24 08:16:36;;;;;;;8.40;7.70;;;17.80;1.00;;;;;;5089723;28;20445;-78
2023/09/24 08:19:03;;;;;;;7.77;7.27;;;17.80;1.00;;;;;;5107556;28;20603;-77
2023/09/24 08:21:32;;;;;;;6.53;6.03;;;17.70;1.00;;;;;;5108142;27;20488;-77
2023/09/24 08:23:59;;;;;;;6.80;6.17;;;17.60;1.00;;;;;;5106696;27;20450;-78
2023/09/24 08:26:26;;;;;;;5.97;5.53;;;17.50;1.00;;;;;;5106551;27;20503;-77
2023/09/24 08:28:53;;;;;;;6.10;5.50;;;17.50;1.00;;;;;;5107297;27;20469;-76
2023/09/24 08:31:20;;;;;;;7.97;5.97;;;17.60;1.00;;;;;;5106181;28;20450;-77
2023/09/24 08:33:50;;;;;;;6.10;5.60;;;17.70;1.00;;;;;;5104248;27;20521;-76
2023/09/24 08:36:21;;;;;;;6.27;5.67;;;17.70;1.00;;;;;;5109864;27;21094;-76
2023/09/24 08:38:48;;;;;;;31.03;27.97;;;17.70;1.00;;;;;;5108984;27;20933;-76
2023/09/24 08:41:15;;;;;;;6.07;5.57;;;17.90;1.00;;;;;;5107015;27;20485;-78
2023/09/24 08:43:44;;;;;;;5.90;5.40;;;18.00;1.00;;;;;;5105406;27;20554;-77
2023/09/24 08:46:12;;;;;;;5.37;4.87;;;18.00;1.00;;;;;;5106475;27;20449;-77
2023/09/24 08:48:40;;;;;;;5.90;5.40;;;18.00;1.00;;;;;;5108140;28;20952;-76
2023/09/24 08:51:10;;;;;;;7.10;5.73;;;17.90;1.00;;;;;;5104495;27;20449;-77
2023/09/24 08:53:39;;;;;;;5.37;4.80;;;17.80;1.00;;;;;;5105215;27;20523;-78
2023/09/24 08:56:07;;;;;;;5.20;4.77;;;17.90;1.00;;;;;;5108846;27;20460;-77
2023/09/24 08:58:37;;;;;;;5.93;5.17;;;18.00;1.00;;;;;;5108192;28;20470;-76
2023/09/24 09:01:09;;;;;;;4.67;4.27;;;18.20;1.00;;;;;;5108690;28;20466;-77
2023/09/24 09:03:36;;;;;;;6.90;5.00;;;18.60;1.00;;;;;;5105767;28;20483;-75
2023/09/24 09:06:05;;;;;;;4.53;4.10;;;19.10;1.00;;;;;;5106396;27;20447;-79
2023/09/24 09:08:51;;;;;;;4.43;3.83;;;20.30;1.00;;;;;;5111265;27;20461;-79
2023/09/24 09:11:19;;;;;;;4.00;3.70;;;21.50;1.00;;;;;;5111598;27;20448;-79
2023/09/24 09:13:49;;;;;;;7.23;3.90;;;22.60;1.00;;;;;;5104929;27;20541;-77
2023/09/24 09:16:16;;;;;;;3.40;3.10;;;22.90;1.00;;;;;;5106299;27;20454;-80
2023/09/24 09:18:44;;;;;;;5.00;4.03;;;23.40;1.00;;;;;;5104763;28;20497;-77
2023/09/24 09:21:24;;;;;;;4.67;3.27;;;24.90;1.00;;;;;;5105949;27;20514;-77
2023/09/24 09:23:54;;;;;;;7.87;3.60;;;25.80;1.00;;;;;;5106060;27;20545;-78
2023/09/24 09:26:26;;;;;;;5.20;3.40;;;26.30;1.00;;;;;;5105416;27;20511;-78
2023/09/24 09:28:53;;;;;;;3.80;3.47;;;27.20;1.00;;;;;;5105294;27;20486;-77
2023/09/24 09:31:22;;;;;;;2.93;2.73;;;28.10;1.00;;;;;;5106832;27;20550;-78
2023/09/24 09:33:50;;;;;;;3.70;3.40;;;28.90;1.00;;;;;;5104481;27;21230;-78
2023/09/24 09:36:22;;;;;;;5.90;3.00;;;29.10;1.00;;;;;;5110990;27;20443;-78
2023/09/24 09:38:50;;;;;;;10.90;8.40;;;29.50;1.00;;;;;;5106044;28;20908;-78
2023/09/24 09:41:20;;;;;;;3.30;3.10;;;29.40;1.00;;;;;;5105823;27;20459;-77
2023/09/24 09:43:48;;;;;;;4.50;3.00;;;28.90;1.00;;;;;;5109888;28;20499;-82
2023/09/24 09:46:19;;;;;;;3.73;3.23;;;29.60;1.00;;;;;;5111596;27;20460;-85
2023/09/24 09:48:51;;;;;;;3.93;3.47;;;29.60;1.00;;;;;;5114754;27;20988;-83
2023/09/24 09:51:20;;;;;;;3.40;3.10;;;29.20;1.00;;;;;;5112862;27;20460;-84
2023/09/24 09:53:48;;;;;;;3.70;3.40;;;29.30;1.00;;;;;;5111304;27;20470;-80
2023/09/24 09:56:15;;;;;;;3.80;3.30;;;28.40;1.00;;;;;;5109887;28;21062;-82
2023/09/24 09:58:47;;;;;;;3.50;3.20;;;27.60;1.00;;;;;;5110925;27;20429;-79
2023/09/24 10:01:15;;;;;;;3.73;3.43;;;28.30;1.00;;;;;;5112801;28;20464;-82
2023/09/24 10:03:45;;;;;;;6.10;5.50;;;29.50;1.00;;;;;;5111284;27;20499;-80
2023/09/24 10:06:13;;;;;;;4.10;3.47;;;30.60;1.00;;;;;;5111637;27;20868;-82
2023/09/24 10:08:42;;;;;;;4.13;3.20;;;31.30;1.00;;;;;;5106303;27;21842;-79
2023/09/24 10:11:10;;;;;;;4.03;3.00;;;31.90;1.00;;;;;;5111346;28;20458;-79
2023/09/24 10:13:47;;;;;;;3.40;2.93;;;32.20;1.00;;;;;;5110206;27;21003;-80
2023/09/24 10:16:47;;;;;;;2.57;2.30;;;31.00;1.00;;;;;;5108330;27;21498;-79
2023/09/24 10:19:16;;;;;;;2.50;2.20;;;28.60;1.00;;;;;;5108705;28;20626;-81
2023/09/24 10:21:45;;;;;;;3.23;2.47;;;27.40;1.00;;;;;;5109599;28;20471;-82
2023/09/24 10:24:49;;;;;;;4.40;2.80;;;26.90;1.00;;;;;;5110240;28;20469;-80
2023/09/24 10:27:21;;;;;;;2.30;1.90;;;27.90;1.00;;;;;;5107415;27;20485;-81
2023/09/24 10:30:10;;;;;;;3.83;2.37;;;27.20;1.00;;;;;;5104352;27;20907;-80
2023/09/24 10:32:49;;;;;;;2.60;2.40;;;26.80;1.00;;;;;;5104288;27;20474;-81
2023/09/24 10:35:18;;;;;;;2.87;2.20;;;27.10;1.00;;;;;;5112150;27;20445;-80
2023/09/24 10:38:05;;;;;;;2.57;2.37;;;28.10;1.00;;;;;;5112133;28;20416;-80
2023/09/24 10:40:33;;;;;;;3.27;2.40;;;29.70;1.00;;;;;;5109578;27;20461;-81
2023/09/24 10:43:18;;;;;;;3.57;3.20;;;30.90;1.00;;;;;;5091492;28;20567;-78
2023/09/24 10:45:46;;;;;;;2.63;1.90;;;31.80;1.00;;;;;;5111001;27;21251;-80
2023/09/24 10:48:21;;;;;;;2.03;1.90;;;32.20;1.00;;;;;;5110286;27;20491;-80
2023/09/24 10:50:53;;;;;;;2.73;1.80;;;33.00;1.00;;;;;;5096216;27;21054;-79
2023/09/24 10:53:20;;;;;;;3.07;2.70;;;33.30;1.00;;;;;;5111064;27;21080;-81
2023/09/24 10:55:47;;;;;;;3.20;2.20;;;33.50;1.00;;;;;;5112767;27;20485;-79
2023/09/24 10:58:15;;;;;;;3.40;2.10;;;33.90;1.00;;;;;;5116711;27;20457;-82
2023/09/24 11:00:44;;;;;;;2.20;2.00;;;34.20;1.00;;;;;;5114223;28;20458;-80
2023/09/24 11:03:15;;;;;;;4.30;2.43;;;34.50;1.00;;;;;;5110066;27;20494;-80
2023/09/24 11:05:45;;;;;;;3.73;3.40;;;33.40;1.00;;;;;;5112323;27;20480;-80
2023/09/24 11:08:14;;;;;;;5.37;2.20;;;32.20;1.00;;;;;;5110400;27;20451;-80
2023/09/24 11:10:41;;;;;;;3.70;2.10;;;31.30;1.00;;;;;;5111692;28;20515;-81
2023/09/24 11:13:08;;;;;;;4.43;2.40;;;30.30;1.00;;;;;;5111051;27;20603;-80
2023/09/24 11:15:37;;;;;;;2.30;2.07;;;30.40;1.00;;;;;;5112043;27;20538;-80
2023/09/24 11:18:05;;;;;;;3.00;2.67;;;29.70;1.00;;;;;;5114744;28;20479;-79
2023/09/24 11:20:34;;;;;;;3.60;2.90;;;28.10;1.00;;;;;;5115506;28;20906;-81
2023/09/24 11:23:05;;;;;;;2.20;2.00;;;26.60;1.00;;;;;;5111399;27;20424;-82
2023/09/24 11:25:33;;;;;;;3.87;2.43;;;25.40;1.00;;;;;;5112955;27;20446;-79
2023/09/24 11:28:01;;;;;;;2.37;2.10;;;25.60;1.00;;;;;;5112018;27;20448;-80
2023/09/24 11:30:41;;;;;;;3.20;2.47;;;27.20;1.00;;;;;;5111906;27;20481;-81
2023/09/24 11:33:13;;;;;;;2.50;2.27;;;29.60;1.00;;;;;;5111743;27;20453;-81
2023/09/24 11:35:43;;;;;;;2.47;2.27;;;31.80;1.00;;;;;;5101481;27;20493;-81
2023/09/24 11:38:11;;;;;;;4.83;3.70;;;33.40;1.00;;;;;;5109739;27;20461;-82
2023/09/24 11:40:40;;;;;;;3.33;2.50;;;34.80;1.00;;;;;;5111706;28;20474;-82
2023/09/24 11:43:13;;;;;;;3.40;2.10;;;35.60;1.00;;;;;;5110321;27;20444;-83
2023/09/24 11:45:48;;;;;;;3.47;1.73;;;36.40;1.00;;;;;;5114351;28;20469;-82
2023/09/24 11:48:16;;;;;;;2.43;1.70;;;36.60;1.00;;;;;;5111969;27;20548;-80
2023/09/24 11:50:46;;;;;;;2.80;1.70;;;37.60;1.00;;;;;;5109764;27;20454;-80
2023/09/24 11:53:14;;;;;;;2.07;1.87;;;36.80;1.00;;;;;;5112092;28;20903;-83
2023/09/24 11:55:42;;;;;;;2.67;1.97;;;36.80;1.00;;;;;;5110075;28;20685;-82
2023/09/24 11:58:11;;;;;;;2.90;2.17;;;36.50;1.00;;;;;;5114807;27;20491;-84
2023/09/24 12:00:39;;;;;;;2.50;2.20;;;35.80;1.00;;;;;;5111876;27;20473;-87
2023/09/24 12:03:08;;;;;;;3.53;3.13;;;33.60;1.00;;;;;;5113871;27;20410;-85
2023/09/24 12:05:36;;;;;;;2.40;1.90;;;31.50;1.00;;;;;;5118245;27;20531;-85
2023/09/24 12:08:08;;;;;;;2.60;2.00;;;31.60;1.00;;;;;;5114088;28;20491;-85
2023/09/24 12:10:38;;;;;;;3.33;1.70;;;33.60;1.00;;;;;;5114694;27;20556;-84
2023/09/24 12:13:06;;;;;;;2.73;1.67;;;34.20;1.00;;;;;;5095053;28;20422;-84
2023/09/24 12:15:34;;;;;;;2.40;1.80;;;33.20;1.00;;;;;;5112675;27;20977;-84
2023/09/24 12:18:04;;;;;;;2.93;2.00;;;33.10;1.00;;;;;;5115341;28;20968;-86
2023/09/24 12:20:33;;;;;;;1.93;1.83;;;34.30;1.00;;;;;;5108540;27;20958;-86
2023/09/24 12:23:03;;;;;;;2.57;1.80;;;35.70;1.00;;;;;;5117352;27;20481;-84
2023/09/24 12:25:34;;;;;;;3.60;1.80;;;36.90;1.00;;;;;;5095622;28;20880;-84
2023/09/24 12:28:01;;;;;;;1.60;1.33;;;37.80;1.00;;;;;;5117679;27;20460;-84
2023/09/24 12:30:32;;;;;;;1.30;1.20;;;38.60;1.00;;;;;;5112414;27;20466;-84
2023/09/24 12:32:59;;;;;;;1.80;1.50;;;38.40;1.00;;;;;;5113799;27;20433;-83
2023/09/24 12:35:32;;;;;;;1.43;1.20;;;38.00;1.00;;;;;;5111812;27;20560;-88
2023/09/24 12:38:18;;;;;;;2.00;1.80;;;37.40;1.00;;;;;;5118807;28;20423;-82
2023/09/24 12:40:50;;;;;;;1.87;1.67;;;37.10;1.00;;;;;;5121521;28;20457;-86
2023/09/24 12:43:18;;;;;;;3.03;2.20;;;37.20;1.00;;;;;;5110422;27;20474;-84
2023/09/24 12:45:49;;;;;;;2.57;2.03;;;37.50;1.00;;;;;;5114631;28;20564;-84
2023/09/24 12:48:16;;;;;;;4.20;2.03;;;38.10;1.00;;;;;;5102768;28;20489;-81
2023/09/24 12:50:43;;;;;;;2.63;1.77;;;38.20;1.00;;;;;;5103449;27;20486;-86
2023/09/24 12:53:10;;;;;;;3.90;1.93;;;37.90;1.00;;;;;;5119488;27;20450;-85
2023/09/24 12:55:38;;;;;;;2.00;1.80;;;36.00;1.00;;;;;;5093534;28;20478;-85
2023/09/24 12:58:10;;;;;;;1.90;1.70;;;33.00;1.00;;;;;;5113002;27;20837;-84
2023/09/24 13:00:44;;;;;;;1.97;1.77;;;30.80;1.00;;;;;;5111879;27;20433;-83
2023/09/24 13:03:14;;;;;;;1.90;1.70;;;28.50;1.00;;;;;;5115896;28;20431;-81
2023/09/24 13:05:41;;;;;;;2.83;2.10;;;26.90;1.00;;;;;;5116364;27;20459;-86